Time;durP1;ratioP1;P1;durP2;ratioP2;P2;SDS_P1;SDS_P2;PMS_P1;PMS_P2;Temp;Humidity;BMP_temperature;BMP_pressure;BME280_temperature;BME280_humidity;BME280_pressure;Samples;Min_cycle;Max_cycle;Signal;HPM_P1;HPM_P2
2022/09/02 00:01:14;;;;;;;2.90;1.00;;;17.40;90.10;;;;;;5103504;27;36580;-60
2022/09/02 00:03:41;;;;;;;2.55;0.88;;;17.30;90.10;;;;;;5103687;27;37390;-59
2022/09/02 00:06:09;;;;;;;2.33;0.60;;;17.30;90.20;;;;;;5103710;27;37591;-59
2022/09/02 00:08:37;;;;;;;4.43;1.00;;;17.30;90.20;;;;;;5104602;27;36349;-60
2022/09/02 00:11:07;;;;;;;1.95;0.80;;;17.20;90.20;;;;;;5105037;27;38319;-59
2022/09/02 00:13:36;;;;;;;7.22;1.13;;;17.20;90.30;;;;;;5100883;27;36388;-59
2022/09/02 00:16:05;;;;;;;4.13;0.93;;;17.20;90.30;;;;;;5101904;27;37537;-59
2022/09/02 00:18:32;;;;;;;1.52;0.82;;;17.10;90.40;;;;;;5101771;27;37852;-59
2022/09/02 00:21:00;;;;;;;2.22;0.80;;;17.10;90.50;;;;;;5100666;27;37207;-60
2022/09/02 00:23:28;;;;;;;3.45;0.90;;;17.00;90.60;;;;;;5101750;27;40849;-59
2022/09/02 00:25:55;;;;;;;6.47;0.95;;;17.00;90.60;;;;;;5102501;27;38348;-59
2022/09/02 00:28:24;;;;;;;2.40;0.80;;;17.00;90.70;;;;;;5101410;27;38622;-59
2022/09/02 00:30:51;;;;;;;2.63;0.90;;;16.90;90.70;;;;;;5100539;27;35547;-59
2022/09/02 00:33:19;;;;;;;2.90;1.00;;;16.90;90.70;;;;;;5101137;27;39045;-59
2022/09/02 00:35:46;;;;;;;2.40;0.82;;;16.90;90.80;;;;;;5102454;27;38027;-59
2022/09/02 00:38:13;;;;;;;2.95;0.68;;;16.80;90.80;;;;;;5100420;27;37291;-59
2022/09/02 00:40:45;;;;;;;1.98;0.70;;;16.80;90.90;;;;;;5098257;27;36645;-59
2022/09/02 00:43:12;;;;;;;3.50;1.10;;;16.80;90.80;;;;;;5101780;27;38600;-59
2022/09/02 00:45:41;;;;;;;2.42;0.80;;;16.80;90.80;;;;;;5103900;27;37456;-60
2022/09/02 00:48:08;;;;;;;3.90;1.00;;;16.80;90.80;;;;;;5103527;27;37060;-59
2022/09/02 00:50:36;;;;;;;4.20;0.80;;;16.70;90.80;;;;;;5104455;27;35388;-60
2022/09/02 00:53:08;;;;;;;2.30;0.90;;;16.70;90.80;;;;;;5103051;27;36390;-59
2022/09/02 00:55:40;;;;;;;3.97;1.33;;;16.70;90.90;;;;;;5102869;27;36710;-59
2022/09/02 00:58:14;;;;;;;1.88;0.95;;;16.70;91.00;;;;;;5103272;27;37194;-59
2022/09/02 01:00:46;;;;;;;3.15;0.88;;;16.60;91.10;;;;;;5100803;27;20083;-59
2022/09/02 01:03:18;;;;;;;2.50;0.93;;;16.60;91.10;;;;;;5102622;27;39179;-59
2022/09/02 01:05:49;;;;;;;2.70;1.25;;;16.60;91.10;;;;;;5103937;27;37869;-59
2022/09/02 01:08:19;;;;;;;2.83;1.10;;;16.50;91.20;;;;;;5101044;27;37561;-58
2022/09/02 01:10:47;;;;;;;2.15;0.80;;;16.50;91.30;;;;;;5104222;27;36659;-59
2022/09/02 01:13:17;;;;;;;2.70;1.20;;;16.40;91.30;;;;;;5102588;27;37485;-59
2022/09/02 01:15:48;;;;;;;2.92;1.23;;;16.40;91.50;;;;;;5102077;27;36558;-59
2022/09/02 01:18:27;;;;;;;3.38;1.58;;;16.40;91.30;;;;;;5103129;27;39901;-60
2022/09/02 01:20:55;;;;;;;4.00;1.40;;;16.50;91.30;;;;;;5099547;27;38767;-60
2022/09/02 01:23:24;;;;;;;3.53;1.17;;;16.40;91.20;;;;;;5100557;27;36363;-59
2022/09/02 01:25:51;;;;;;;4.68;1.30;;;16.40;91.20;;;;;;5102506;27;37450;-59
2022/09/02 01:28:19;;;;;;;3.15;1.20;;;16.40;91.20;;;;;;5101846;27;36112;-59
2022/09/02 01:30:50;;;;;;;2.25;1.25;;;16.40;91.20;;;;;;5102429;27;38492;-59
2022/09/02 01:33:19;;;;;;;2.80;1.25;;;16.40;91.30;;;;;;5102590;27;38975;-59
2022/09/02 01:35:47;;;;;;;3.10;0.90;;;16.40;91.30;;;;;;5101621;27;38849;-59
2022/09/02 01:38:16;;;;;;;2.60;1.10;;;16.40;91.30;;;;;;5101031;27;38603;-59
2022/09/02 01:40:45;;;;;;;2.45;0.90;;;16.40;91.20;;;;;;5102122;27;36750;-60
2022/09/02 01:43:17;;;;;;;2.63;0.95;;;16.30;91.20;;;;;;5101378;27;37977;-59
2022/09/02 01:45:47;;;;;;;2.72;1.00;;;16.30;91.30;;;;;;5102456;27;37754;-59
2022/09/02 01:48:15;;;;;;;3.15;0.93;;;16.30;91.30;;;;;;5101508;27;40114;-60
2022/09/02 01:50:45;;;;;;;2.10;1.00;;;16.20;91.40;;;;;;5102845;27;37598;-60
2022/09/02 01:53:13;;;;;;;2.10;0.90;;;16.20;91.40;;;;;;5100096;27;38288;-59
2022/09/02 01:55:40;;;;;;;2.40;1.10;;;16.20;91.50;;;;;;5101767;27;37878;-59
2022/09/02 01:58:09;;;;;;;6.25;1.30;;;16.10;91.50;;;;;;5100338;27;37361;-59
2022/09/02 02:00:37;;;;;;;3.42;1.08;;;16.10;91.60;;;;;;5100492;27;36216;-59
2022/09/02 02:03:05;;;;;;;2.88;1.30;;;16.10;91.60;;;;;;5100297;27;35994;-59
2022/09/02 02:05:33;;;;;;;2.15;1.00;;;16.10;91.60;;;;;;5100896;27;40237;-60
2022/09/02 02:08:00;;;;;;;3.17;1.05;;;16.10;91.70;;;;;;5099341;27;37959;-59
2022/09/02 02:10:28;;;;;;;29.55;2.92;;;16.10;91.70;;;;;;5101248;27;37495;-59
2022/09/02 02:12:55;;;;;;;3.72;1.02;;;16.10;91.70;;;;;;5092747;27;36464;-59
2022/09/02 02:15:25;;;;;;;15.85;1.65;;;16.00;91.70;;;;;;5096382;27;39899;-59
2022/09/02 02:17:52;;;;;;;3.22;1.23;;;16.00;91.70;;;;;;5098208;27;37123;-58
2022/09/02 02:20:20;;;;;;;3.10;1.30;;;16.00;91.80;;;;;;5098206;27;36454;-59
2022/09/02 02:22:48;;;;;;;3.53;1.20;;;16.00;91.80;;;;;;5099122;27;38888;-60
2022/09/02 02:25:17;;;;;;;4.55;1.15;;;16.00;91.90;;;;;;5100110;27;37284;-60
2022/09/02 02:27:45;;;;;;;3.30;1.02;;;15.90;91.90;;;;;;5100658;27;37586;-59
2022/09/02 02:30:14;;;;;;;1.83;0.85;;;15.90;92.00;;;;;;5098896;27;36213;-60
2022/09/02 02:32:45;;;;;;;3.22;1.13;;;15.90;92.00;;;;;;5096537;27;38214;-60
2022/09/02 02:35:13;;;;;;;2.80;1.02;;;15.80;92.10;;;;;;5098044;27;37583;-59
2022/09/02 02:37:41;;;;;;;4.55;1.20;;;15.80;92.10;;;;;;5098216;27;38243;-60
2022/09/02 02:40:10;;;;;;;3.15;1.10;;;15.80;92.20;;;;;;5097640;27;37223;-59
2022/09/02 02:42:39;;;;;;;6.30;1.55;;;15.80;92.20;;;;;;5099717;27;37774;-59
2022/09/02 02:45:08;;;;;;;4.57;1.10;;;15.80;92.20;;;;;;5099516;27;38452;-58
2022/09/02 02:47:37;;;;;;;3.80;1.20;;;15.70;92.20;;;;;;5098541;27;40218;-58
2022/09/02 02:50:07;;;;;;;4.50;1.17;;;15.80;92.20;;;;;;5100181;27;37504;-59
2022/09/02 02:52:34;;;;;;;1.85;1.00;;;15.70;92.20;;;;;;5095653;27;38356;-59
2022/09/02 02:55:02;;;;;;;2.10;1.00;;;15.70;92.20;;;;;;5100994;27;38342;-59
2022/09/02 02:57:29;;;;;;;2.22;1.15;;;15.70;92.30;;;;;;5102068;27;37219;-59
2022/09/02 02:59:57;;;;;;;4.35;1.35;;;15.70;92.30;;;;;;5101040;27;36683;-58
2022/09/02 03:02:24;;;;;;;3.92;1.08;;;15.70;92.40;;;;;;5100810;27;37687;-58
2022/09/02 03:04:53;;;;;;;3.60;1.08;;;15.70;92.50;;;;;;5100238;27;39107;-58
2022/09/02 03:07:22;;;;;;;4.22;1.35;;;15.60;92.50;;;;;;5104817;27;38460;-58
2022/09/02 03:09:49;;;;;;;2.83;1.10;;;15.60;92.80;;;;;;5105027;27;36500;-59
2022/09/02 03:12:16;;;;;;;2.10;1.13;;;15.60;92.60;;;;;;5105013;27;37270;-59
2022/09/02 03:14:44;;;;;;;3.17;1.15;;;15.60;92.60;;;;;;5104293;27;38661;-59
2022/09/02 03:17:11;;;;;;;4.32;1.13;;;15.50;92.70;;;;;;5104050;27;37056;-58
2022/09/02 03:19:38;;;;;;;2.28;1.02;;;15.50;92.70;;;;;;5104377;27;35299;-59
2022/09/02 03:22:06;;;;;;;3.58;1.00;;;15.50;92.90;;;;;;5105900;27;37668;-59
2022/09/02 03:24:34;;;;;;;2.92;1.08;;;15.40;92.90;;;;;;5103605;27;38232;-59
2022/09/02 03:27:02;;;;;;;3.22;1.17;;;15.40;92.90;;;;;;5104653;27;37798;-59
2022/09/02 03:29:29;;;;;;;1.83;1.05;;;15.40;93.00;;;;;;5103294;27;35198;-58
2022/09/02 03:31:57;;;;;;;3.53;1.05;;;15.30;93.00;;;;;;5104656;27;37620;-58
2022/09/02 03:34:24;;;;;;;3.75;1.20;;;15.30;93.10;;;;;;5105159;27;38812;-58
2022/09/02 03:36:51;;;;;;;4.57;1.20;;;15.30;93.10;;;;;;5104381;27;36060;-59
2022/09/02 03:39:19;;;;;;;2.85;1.08;;;15.30;93.10;;;;;;5104969;27;36239;-59
2022/09/02 03:41:49;;;;;;;2.63;1.02;;;15.20;93.20;;;;;;5104289;27;38264;-59
2022/09/02 03:44:16;;;;;;;2.50;1.08;;;15.30;93.30;;;;;;5104204;27;37132;-58
2022/09/02 03:46:44;;;;;;;3.40;1.15;;;15.20;93.20;;;;;;5104573;27;38315;-58
2022/09/02 03:49:11;;;;;;;3.28;1.05;;;15.20;93.30;;;;;;5103948;27;37221;-59
2022/09/02 03:51:40;;;;;;;2.85;1.08;;;15.10;93.40;;;;;;5104510;27;37873;-59
2022/09/02 03:54:09;;;;;;;4.40;1.30;;;15.20;93.50;;;;;;5102344;27;36451;-58
2022/09/02 03:56:36;;;;;;;2.08;0.93;;;15.20;93.50;;;;;;5104595;27;38664;-58
2022/09/02 03:59:05;;;;;;;1.88;1.00;;;15.10;93.50;;;;;;5103880;27;37392;-58
2022/09/02 04:01:33;;;;;;;2.38;1.00;;;15.10;93.60;;;;;;5102239;27;37692;-60
2022/09/02 04:04:01;;;;;;;2.60;1.30;;;15.00;93.60;;;;;;5103430;27;38485;-58
2022/09/02 04:06:28;;;;;;;2.83;1.20;;;15.00;93.70;;;;;;5104174;27;38603;-58
2022/09/02 04:08:56;;;;;;;2.70;1.20;;;15.00;93.80;;;;;;5102338;27;38115;-58
2022/09/02 04:11:24;;;;;;;1.80;0.98;;;15.00;93.80;;;;;;5104630;27;40153;-59
2022/09/02 04:13:53;;;;;;;2.67;1.08;;;15.00;93.90;;;;;;5104449;27;37880;-58
2022/09/02 04:16:27;;;;;;;3.33;1.30;;;15.00;93.90;;;;;;5104356;27;37799;-58
2022/09/02 04:18:55;;;;;;;1.73;1.00;;;15.00;94.00;;;;;;5103015;27;36563;-58
2022/09/02 04:21:23;;;;;;;4.72;1.40;;;14.90;94.00;;;;;;5104613;27;37444;-59
2022/09/02 04:23:51;;;;;;;2.50;1.25;;;15.00;94.10;;;;;;5102818;27;39297;-58
2022/09/02 04:26:20;;;;;;;4.45;1.65;;;14.90;94.10;;;;;;5103984;27;37190;-59
2022/09/02 04:28:48;;;;;;;2.75;1.17;;;15.00;94.10;;;;;;5104086;27;37709;-59
2022/09/02 04:31:17;;;;;;;3.85;1.10;;;15.00;94.10;;;;;;5104819;27;38181;-58
2022/09/02 04:33:46;;;;;;;3.53;1.10;;;15.00;94.10;;;;;;5102702;27;39000;-59
2022/09/02 04:36:16;;;;;;;2.83;1.30;;;15.00;94.10;;;;;;5101296;27;38570;-58
2022/09/02 04:38:43;;;;;;;3.10;1.10;;;15.00;94.00;;;;;;5102491;27;37228;-59
2022/09/02 04:41:13;;;;;;;3.35;1.23;;;15.00;94.10;;;;;;5102436;27;37521;-58
2022/09/02 04:43:40;;;;;;;3.20;1.90;;;15.10;94.00;;;;;;5102743;27;36386;-58
2022/09/02 04:46:11;;;;;;;2.65;1.15;;;15.10;94.00;;;;;;5104231;27;40174;-59
2022/09/02 04:48:39;;;;;;;2.72;1.20;;;15.00;94.00;;;;;;5101807;27;37062;-59
2022/09/02 04:51:09;;;;;;;5.20;1.25;;;15.10;94.00;;;;;;5103738;27;37982;-58
2022/09/02 04:53:37;;;;;;;2.95;1.40;;;15.10;94.00;;;;;;5101700;27;38195;-58
2022/09/02 04:56:05;;;;;;;2.60;1.17;;;15.00;94.00;;;;;;5104098;27;37311;-59
2022/09/02 04:58:33;;;;;;;4.40;1.50;;;15.00;94.00;;;;;;5103664;27;36330;-58
2022/09/02 05:01:05;;;;;;;3.20;1.30;;;15.00;94.00;;;;;;5104020;27;36418;-59
2022/09/02 05:03:33;;;;;;;2.70;1.10;;;15.10;94.10;;;;;;5100154;27;40766;-58
2022/09/02 05:06:01;;;;;;;2.55;1.23;;;15.10;94.10;;;;;;5102844;27;37843;-59
2022/09/02 05:08:30;;;;;;;2.55;1.08;;;15.10;94.10;;;;;;5103296;27;35627;-58
2022/09/02 05:10:57;;;;;;;2.78;1.00;;;15.10;94.10;;;;;;5103703;27;37985;-58
2022/09/02 05:13:25;;;;;;;2.67;1.23;;;15.10;94.20;;;;;;5103130;27;38975;-58
2022/09/02 05:15:53;;;;;;;2.20;0.93;;;15.10;94.20;;;;;;5102503;27;37410;-58
2022/09/02 05:18:20;;;;;;;4.05;1.30;;;15.10;94.30;;;;;;5103330;27;36827;-59
2022/09/02 05:20:48;;;;;;;3.22;1.15;;;15.20;94.30;;;;;;5103444;27;37654;-58
2022/09/02 05:23:15;;;;;;;2.60;1.20;;;15.20;94.40;;;;;;5102844;27;37746;-58
2022/09/02 05:25:44;;;;;;;4.50;1.40;;;15.30;94.30;;;;;;5099587;27;37440;-59
2022/09/02 05:28:11;;;;;;;2.67;1.27;;;15.40;94.20;;;;;;5103103;27;37478;-58
2022/09/02 05:30:41;;;;;;;2.75;1.20;;;15.60;94.10;;;;;;5101714;27;37909;-58
2022/09/02 05:33:09;;;;;;;4.30;1.35;;;15.70;93.80;;;;;;5102419;27;37886;-58
2022/09/02 05:35:40;;;;;;;3.08;1.13;;;15.90;93.60;;;;;;5096643;27;37387;-58
2022/09/02 05:38:07;;;;;;;3.80;1.48;;;16.00;93.20;;;;;;5101537;27;35275;-58
2022/09/02 05:40:36;;;;;;;3.35;1.20;;;16.40;92.80;;;;;;5101761;27;37518;-59
2022/09/02 05:43:05;;;;;;;9.05;1.55;;;16.70;92.40;;;;;;5102547;27;38483;-58
2022/09/02 05:45:33;;;;;;;4.30;1.40;;;17.20;91.20;;;;;;5101566;27;37140;-58
2022/09/02 05:49:04;;;;;;;6.00;1.50;;;17.50;90.40;;;;;;5101925;27;36530;-59
2022/09/02 05:50:48;;;;;;;2.47;1.02;;;17.50;90.00;;;;;;5091963;27;37029;-59
2022/09/02 05:53:15;;;;;;;5.00;1.52;;;17.50;89.60;;;;;;5098644;27;38323;-60
2022/09/02 05:55:42;;;;;;;5.38;1.30;;;17.50;89.90;;;;;;5100057;27;37334;-59
2022/09/02 05:58:11;;;;;;;4.88;1.40;;;17.20;89.90;;;;;;5099757;27;36994;-59
2022/09/02 06:00:39;;;;;;;3.85;1.48;;;17.10;90.20;;;;;;5099483;27;38546;-59
2022/09/02 06:03:06;;;;;;;6.60;1.73;;;16.90;90.60;;;;;;5097239;27;37630;-59
2022/09/02 06:05:34;;;;;;;5.50;1.30;;;16.80;90.90;;;;;;5099189;27;38495;-60
2022/09/02 06:08:02;;;;;;;7.45;1.20;;;16.70;91.20;;;;;;5099399;27;35520;-59
2022/09/02 06:10:29;;;;;;;6.30;1.60;;;16.60;91.40;;;;;;5098971;27;38181;-59
2022/09/02 06:12:56;;;;;;;3.00;1.10;;;16.50;91.70;;;;;;5098526;27;38041;-60
2022/09/02 06:15:26;;;;;;;7.20;1.40;;;16.50;91.80;;;;;;5099162;27;37426;-60
2022/09/02 06:17:58;;;;;;;14.38;2.10;;;16.50;92.00;;;;;;5096980;27;37125;-60
2022/09/02 06:20:27;;;;;;;13.40;1.80;;;16.50;92.20;;;;;;5098639;27;37306;-59
2022/09/02 06:22:55;;;;;;;7.95;1.55;;;16.50;92.60;;;;;;5099063;27;38173;-59
2022/09/02 06:25:22;;;;;;;7.03;1.70;;;16.50;92.70;;;;;;5096971;27;39072;-59
2022/09/02 06:27:49;;;;;;;3.22;1.05;;;16.50;92.70;;;;;;5095859;27;35422;-59
2022/09/02 06:30:17;;;;;;;4.28;1.15;;;16.50;92.60;;;;;;5091954;27;38809;-60
2022/09/02 06:32:46;;;;;;;4.57;1.50;;;16.50;92.70;;;;;;5094253;27;38609;-59
2022/09/02 06:35:13;;;;;;;3.38;1.40;;;16.60;92.60;;;;;;5096337;27;38573;-59
2022/09/02 06:37:40;;;;;;;3.05;1.17;;;16.60;92.60;;;;;;5096383;27;35303;-60
2022/09/02 06:40:09;;;;;;;5.00;1.60;;;16.60;92.50;;;;;;5095091;27;37788;-60
2022/09/02 06:42:37;;;;;;;3.55;1.20;;;16.60;92.40;;;;;;5099688;27;37932;-60
2022/09/02 06:45:05;;;;;;;9.45;1.80;;;16.60;92.40;;;;;;5096812;27;37261;-60
2022/09/02 06:47:32;;;;;;;4.82;1.80;;;16.70;92.50;;;;;;5097922;27;37695;-60
2022/09/02 06:50:01;;;;;;;4.50;1.30;;;16.70;92.60;;;;;;5100072;27;37910;-60
2022/09/02 06:52:29;;;;;;;4.15;1.45;;;16.80;92.20;;;;;;5099723;27;39179;-59
2022/09/02 06:54:56;;;;;;;5.88;1.30;;;16.80;92.30;;;;;;5097804;27;36777;-59
2022/09/02 06:57:23;;;;;;;5.38;1.25;;;16.80;92.40;;;;;;5101127;27;37407;-59
2022/09/02 06:59:50;;;;;;;4.53;1.30;;;16.80;92.40;;;;;;5099828;27;39319;-59
2022/09/02 07:02:18;;;;;;;4.13;1.50;;;16.90;92.60;;;;;;5099310;27;38116;-59
2022/09/02 07:07:48;;;;;;;4.47;1.70;;;17.00;92.30;;;;;;5039413;28;38251;-59
2022/09/02 07:10:16;;;;;;;6.22;1.33;;;17.00;92.30;;;;;;5039726;28;37724;-59
2022/09/02 07:12:43;;;;;;;4.32;1.08;;;17.00;92.20;;;;;;5066524;27;38346;-59
2022/09/02 07:15:12;;;;;;;7.03;1.98;;;17.00;92.00;;;;;;5100233;27;37308;-59
2022/09/02 07:17:40;;;;;;;7.65;1.50;;;17.20;92.20;;;;;;5099759;27;35809;-60
2022/09/02 07:20:07;;;;;;;4.32;1.40;;;17.10;92.10;;;;;;5099525;27;37383;-59
2022/09/02 07:22:35;;;;;;;5.10;1.70;;;17.20;92.30;;;;;;5098982;27;37545;-59
2022/09/02 07:25:04;;;;;;;7.38;1.35;;;17.20;92.20;;;;;;5099674;27;36922;-60
2022/09/02 07:27:31;;;;;;;3.60;1.50;;;17.20;92.20;;;;;;5099672;27;36870;-59
2022/09/02 07:29:59;;;;;;;10.50;1.95;;;17.30;92.20;;;;;;5099806;27;37865;-59
2022/09/02 07:32:27;;;;;;;2.95;1.25;;;17.30;92.30;;;;;;5098172;27;38396;-59
2022/09/02 07:34:55;;;;;;;4.90;1.20;;;17.40;92.20;;;;;;5097940;27;37359;-60
2022/09/02 07:37:22;;;;;;;10.68;1.63;;;17.40;92.40;;;;;;5099140;27;39451;-59
2022/09/02 07:39:50;;;;;;;3.53;1.10;;;17.50;92.40;;;;;;5098943;27;37401;-59
2022/09/02 07:42:19;;;;;;;4.03;1.50;;;17.50;92.00;;;;;;5097403;27;38125;-59
2022/09/02 07:44:46;;;;;;;6.03;1.55;;;17.60;91.90;;;;;;5099385;27;37232;-59
2022/09/02 07:47:13;;;;;;;3.10;1.42;;;17.60;91.80;;;;;;5099237;27;35392;-59
2022/09/02 07:49:41;;;;;;;7.53;2.40;;;17.60;92.00;;;;;;5098910;27;37571;-60
2022/09/02 07:52:11;;;;;;;8.48;1.73;;;17.70;91.90;;;;;;5098310;27;38410;-59
2022/09/02 07:54:38;;;;;;;8.38;1.60;;;17.80;91.90;;;;;;5098707;27;37940;-59
2022/09/02 07:57:06;;;;;;;6.32;2.03;;;17.80;91.80;;;;;;5098347;27;37732;-60
2022/09/02 07:59:34;;;;;;;11.00;1.52;;;17.80;91.70;;;;;;5098823;27;36253;-59
2022/09/02 08:02:02;;;;;;;4.68;1.58;;;17.90;91.60;;;;;;5099131;27;36600;-59
2022/09/02 08:04:29;;;;;;;2.83;1.25;;;18.00;91.80;;;;;;5098627;27;37376;-60
2022/09/02 08:06:56;;;;;;;2.97;1.35;;;18.00;91.30;;;;;;5098702;27;36412;-60
2022/09/02 08:09:24;;;;;;;3.17;1.20;;;18.10;91.10;;;;;;5100977;27;37994;-59
2022/09/02 08:11:52;;;;;;;5.43;1.42;;;18.20;91.10;;;;;;5100423;27;37656;-59
2022/09/02 08:14:22;;;;;;;3.58;1.30;;;18.20;91.00;;;;;;5100957;27;38230;-59
2022/09/02 08:16:52;;;;;;;8.90;1.40;;;18.30;90.90;;;;;;5100743;27;36685;-60
2022/09/02 08:19:20;;;;;;;3.25;1.25;;;18.40;90.90;;;;;;5101374;27;38119;-60
2022/09/02 08:21:47;;;;;;;3.20;1.15;;;18.50;90.40;;;;;;5101128;27;36540;-59
2022/09/02 08:24:14;;;;;;;3.83;1.30;;;18.70;90.00;;;;;;5100375;27;37317;-60
2022/09/02 08:26:41;;;;;;;3.67;1.23;;;19.00;89.10;;;;;;5100875;27;37833;-60
2022/09/02 08:29:09;;;;;;;3.45;1.38;;;19.20;88.00;;;;;;5100755;27;39799;-60
2022/09/02 08:31:37;;;;;;;8.90;2.00;;;19.20;88.00;;;;;;5100803;27;38376;-60
2022/09/02 08:34:06;;;;;;;2.03;1.02;;;19.20;87.50;;;;;;5101268;27;37403;-60
2022/09/02 08:36:33;;;;;;;4.03;1.25;;;19.30;87.30;;;;;;5100793;27;36618;-60
2022/09/02 08:39:02;;;;;;;8.57;1.35;;;19.40;86.50;;;;;;5101866;27;36411;-60
2022/09/02 08:41:34;;;;;;;3.95;1.30;;;19.50;86.40;;;;;;5099944;27;36720;-60
2022/09/02 08:44:03;;;;;;;3.27;1.30;;;19.50;86.20;;;;;;5101447;27;39386;-59
2022/09/02 08:46:34;;;;;;;3.45;1.30;;;19.60;85.90;;;;;;5100385;27;37528;-60
2022/09/02 08:49:07;;;;;;;1.75;0.88;;;19.70;85.80;;;;;;5100286;27;37553;-60
2022/09/02 08:51:41;;;;;;;2.05;0.95;;;19.80;85.50;;;;;;5100753;27;38970;-60
2022/09/02 08:54:15;;;;;;;3.22;1.00;;;19.90;85.50;;;;;;5100207;27;37627;-60
2022/09/02 08:56:42;;;;;;;4.45;1.30;;;19.90;84.80;;;;;;5101769;27;36676;-60
2022/09/02 08:59:11;;;;;;;3.22;1.20;;;20.00;84.90;;;;;;5101488;27;37347;-60
2022/09/02 09:01:47;;;;;;;2.60;1.00;;;20.10;83.80;;;;;;5100873;27;37723;-60
2022/09/02 09:04:20;;;;;;;2.72;1.00;;;20.20;82.90;;;;;;5099826;27;37544;-60
2022/09/02 09:07:16;;;;;;;6.10;1.25;;;20.30;82.60;;;;;;5101241;27;35373;-60
2022/09/02 09:09:55;;;;;;;4.30;1.23;;;20.40;82.50;;;;;;5099406;27;36480;-60
2022/09/02 09:12:34;;;;;;;11.00;1.52;;;20.50;80.40;;;;;;5099864;27;37478;-60
2022/09/02 09:15:07;;;;;;;27.33;1.92;;;20.60;79.80;;;;;;5099633;27;36253;-59
2022/09/02 09:17:43;;;;;;;9.43;1.33;;;20.60;78.50;;;;;;5099718;27;36723;-59
2022/09/02 09:20:18;;;;;;;6.32;1.40;;;20.70;79.00;;;;;;5100281;27;37390;-60
2022/09/02 09:22:49;;;;;;;21.05;1.38;;;20.80;77.50;;;;;;5099993;27;36488;-60
2022/09/02 09:25:18;;;;;;;3.00;1.02;;;20.80;77.50;;;;;;5099335;27;37127;-60
2022/09/02 09:27:45;;;;;;;7.45;1.27;;;20.90;77.00;;;;;;5099422;27;35259;-59
2022/09/02 09:30:14;;;;;;;9.25;1.48;;;20.90;76.00;;;;;;5099285;27;38659;-60
2022/09/02 09:32:46;;;;;;;4.32;1.50;;;21.00;75.60;;;;;;5098981;27;38765;-60
2022/09/02 09:35:15;;;;;;;6.32;1.35;;;21.10;75.30;;;;;;5100020;27;37912;-60
2022/09/02 09:37:46;;;;;;;5.75;1.10;;;21.20;75.10;;;;;;5100160;27;35382;-59
2022/09/02 09:40:30;;;;;;;7.43;1.23;;;21.30;74.60;;;;;;5100095;27;39133;-60
2022/09/02 09:43:12;;;;;;;5.35;1.13;;;21.40;72.90;;;;;;5100111;27;37875;-59
2022/09/02 09:45:41;;;;;;;6.05;1.33;;;21.60;73.40;;;;;;5099623;27;38267;-60
2022/09/02 09:48:17;;;;;;;6.68;1.10;;;21.70;73.30;;;;;;5100423;27;36449;-60
2022/09/02 09:50:46;;;;;;;5.10;1.27;;;21.80;70.90;;;;;;5100357;27;37628;-59
2022/09/02 09:53:15;;;;;;;10.20;1.42;;;21.90;71.70;;;;;;5101301;27;38201;-60
2022/09/02 09:55:56;;;;;;;10.52;1.00;;;22.00;71.90;;;;;;5099714;27;37246;-61
2022/09/02 09:58:30;;;;;;;29.13;2.70;;;22.10;71.30;;;;;;5101710;27;36400;-60
2022/09/02 10:00:59;;;;;;;5.18;0.93;;;22.20;72.00;;;;;;5100777;27;38363;-60
2022/09/02 10:03:28;;;;;;;4.18;1.73;;;22.30;71.30;;;;;;5099387;27;37518;-60
2022/09/02 10:05:57;;;;;;;2.70;0.95;;;22.40;69.90;;;;;;5100327;27;39798;-60
2022/09/02 10:08:26;;;;;;;5.03;1.20;;;22.50;69.30;;;;;;5100504;27;35545;-60
2022/09/02 10:11:00;;;;;;;7.53;1.25;;;22.50;68.40;;;;;;5100399;27;37410;-60
2022/09/02 10:13:29;;;;;;;7.97;1.55;;;22.60;66.50;;;;;;5100290;27;37250;-59
2022/09/02 10:16:15;;;;;;;5.28;1.20;;;22.70;67.00;;;;;;5099550;27;36156;-59
2022/09/02 10:18:49;;;;;;;2.80;0.98;;;22.80;65.60;;;;;;5098463;27;36662;-59
2022/09/02 10:21:38;;;;;;;2.80;0.90;;;22.90;65.90;;;;;;5098555;27;37739;-60
2022/09/02 10:24:14;;;;;;;2.58;1.05;;;23.00;65.20;;;;;;5097329;27;37839;-60
2022/09/02 10:26:48;;;;;;;4.40;1.20;;;23.00;63.80;;;;;;5098612;27;36408;-60
2022/09/02 10:29:39;;;;;;;3.42;0.90;;;23.00;63.60;;;;;;5098191;27;35718;-59
2022/09/02 10:32:29;;;;;;;8.85;0.98;;;23.10;64.10;;;;;;5097238;27;37484;-59
2022/09/02 10:35:07;;;;;;;1.85;0.65;;;23.20;62.70;;;;;;5096170;27;38202;-59
2022/09/02 10:37:43;;;;;;;5.20;1.30;;;23.20;62.40;;;;;;5098014;27;38187;-59
2022/09/02 10:40:13;;;;;;;9.98;1.90;;;23.30;62.10;;;;;;5096847;27;36910;-60
2022/09/02 10:43:00;;;;;;;6.95;1.35;;;23.30;61.20;;;;;;5099620;27;38588;-59
2022/09/02 10:45:35;;;;;;;5.18;1.20;;;23.40;59.40;;;;;;5099445;27;37736;-59
2022/09/02 10:48:23;;;;;;;1.80;0.90;;;23.50;60.00;;;;;;5099972;27;39754;-60
2022/09/02 10:50:55;;;;;;;8.43;1.23;;;23.50;60.30;;;;;;5099409;27;35408;-60
2022/09/02 10:53:50;;;;;;;3.92;1.23;;;23.60;59.20;;;;;;5099662;27;38599;-60
2022/09/02 10:56:20;;;;;;;5.15;1.52;;;23.60;58.20;;;;;;5098035;27;38076;-60
2022/09/02 10:58:54;;;;;;;2.42;0.90;;;23.70;57.40;;;;;;5100196;27;38371;-60
2022/09/02 11:01:27;;;;;;;4.10;0.95;;;23.60;57.00;;;;;;5099893;27;36860;-59
2022/09/02 11:04:05;;;;;;;4.22;0.95;;;23.70;57.80;;;;;;5089912;27;37159;-60
2022/09/02 11:06:37;;;;;;;4.72;1.15;;;23.70;57.50;;;;;;5094158;27;39818;-60
2022/09/02 11:09:11;;;;;;;4.72;1.00;;;23.80;56.50;;;;;;5096296;27;38346;-60
2022/09/02 11:11:43;;;;;;;7.25;1.20;;;23.90;56.20;;;;;;5094417;27;35446;-59
2022/09/02 11:14:20;;;;;;;4.45;0.98;;;23.90;56.60;;;;;;5095207;27;37088;-60
2022/09/02 11:16:51;;;;;;;4.80;1.00;;;24.00;56.10;;;;;;5092896;27;37820;-60
2022/09/02 11:19:23;;;;;;;2.70;0.90;;;24.00;55.40;;;;;;5094302;27;37680;-59
2022/09/02 11:21:58;;;;;;;3.50;0.85;;;24.10;54.50;;;;;;5093366;27;36380;-59
2022/09/02 11:24:32;;;;;;;2.15;0.63;;;24.00;54.40;;;;;;5092617;27;38048;-60
2022/09/02 11:27:08;;;;;;;4.32;1.17;;;24.10;54.50;;;;;;5093022;27;37894;-60
2022/09/02 11:29:46;;;;;;;2.53;0.77;;;24.10;54.30;;;;;;5096507;27;37126;-59
2022/09/02 11:32:18;;;;;;;2.30;0.85;;;24.20;52.10;;;;;;5095760;27;36320;-59
2022/09/02 11:34:48;;;;;;;2.03;0.90;;;24.20;54.10;;;;;;5096181;27;37410;-59
2022/09/02 11:37:28;;;;;;;3.45;1.00;;;24.20;54.10;;;;;;5095904;27;36581;-59
2022/09/02 11:40:00;;;;;;;3.33;1.00;;;24.20;53.90;;;;;;5097735;27;37402;-60
2022/09/02 11:43:02;;;;;;;2.35;0.80;;;24.20;54.70;;;;;;5096966;27;35474;-60
2022/09/02 11:46:26;;;;;;;3.17;0.88;;;24.20;54.00;;;;;;5094616;27;37335;-60
2022/09/02 11:49:12;;;;;;;;;;;24.30;53.60;;;;;;5031267;28;37314;-59
2022/09/02 11:52:18;;;;;;;4.50;1.00;;;24.30;54.80;;;;;;5088137;27;37128;-60
2022/09/02 11:54:48;;;;;;;3.20;1.20;;;24.40;54.30;;;;;;5063357;27;36811;-59
2022/09/02 11:57:23;;;;;;;2.35;0.80;;;24.30;54.60;;;;;;5097440;27;38364;-60
2022/09/02 12:00:07;;;;;;;3.65;1.33;;;24.30;53.00;;;;;;5097700;27;38071;-59
2022/09/02 12:02:39;;;;;;;3.40;1.00;;;24.30;52.70;;;;;;5095544;27;37353;-59
2022/09/02 12:05:44;;;;;;;3.38;1.10;;;24.30;52.70;;;;;;5096248;27;37255;-60
2022/09/02 12:08:14;;;;;;;5.88;1.33;;;24.30;52.00;;;;;;5096322;27;36922;-60
2022/09/02 12:10:59;;;;;;;3.22;0.90;;;24.30;52.80;;;;;;5095876;27;36777;-60
2022/09/02 12:13:36;;;;;;;6.43;1.42;;;24.20;51.60;;;;;;5096403;27;37428;-60
2022/09/02 12:16:40;;;;;;;4.00;1.10;;;24.20;52.50;;;;;;5096350;27;37140;-60
2022/09/02 12:19:28;;;;;;;5.43;1.08;;;24.10;53.00;;;;;;5096667;27;37478;-60
2022/09/02 12:22:26;;;;;;;2.88;1.02;;;24.10;53.40;;;;;;5097711;27;38481;-60
2022/09/02 12:24:55;;;;;;;3.53;0.90;;;24.00;53.20;;;;;;5096823;27;38002;-60
2022/09/02 12:27:25;;;;;;;2.95;1.00;;;24.00;53.10;;;;;;5097891;27;37289;-60
2022/09/02 12:29:54;;;;;;;5.40;1.08;;;24.00;53.50;;;;;;5096812;27;37542;-59
2022/09/02 12:32:57;;;;;;;3.40;1.05;;;24.00;53.60;;;;;;5097864;27;36422;-60
2022/09/02 12:35:54;;;;;;;4.10;1.30;;;24.00;52.90;;;;;;5097842;27;37783;-60
2022/09/02 12:38:30;;;;;;;4.65;1.00;;;24.00;53.10;;;;;;5098019;27;35877;-60
2022/09/02 12:41:20;;;;;;;3.25;0.77;;;24.00;52.40;;;;;;5098378;27;38326;-59
2022/09/02 12:44:17;;;;;;;5.65;0.85;;;23.90;51.80;;;;;;5098518;27;38356;-60
2022/09/02 12:46:59;;;;;;;4.95;1.17;;;23.80;51.50;;;;;;5097520;27;36889;-60
2022/09/02 12:49:41;;;;;;;4.50;1.40;;;23.80;51.30;;;;;;5098334;27;36580;-60
2022/09/02 12:52:10;;;;;;;2.45;0.85;;;23.80;50.90;;;;;;5098026;27;38041;-60
2022/09/02 12:54:46;;;;;;;2.55;0.73;;;23.70;51.40;;;;;;5097484;27;36434;-59
2022/09/02 12:57:17;;;;;;;2.85;1.08;;;23.70;51.40;;;;;;5097677;27;38662;-61
2022/09/02 12:59:46;;;;;;;3.28;0.88;;;23.70;50.80;;;;;;5097745;27;35397;-60
2022/09/02 13:02:41;;;;;;;2.03;0.80;;;23.70;50.70;;;;;;5097188;27;38498;-60
2022/09/02 13:05:18;;;;;;;1.90;0.70;;;23.70;50.70;;;;;;5096669;27;36733;-61
2022/09/02 13:08:12;;;;;;;3.53;0.90;;;23.60;50.40;;;;;;5099118;27;37742;-60
2022/09/02 13:11:05;;;;;;;2.63;0.77;;;23.60;50.50;;;;;;5096926;27;36469;-60